TimeCST,TemperatureF,Dew PointF,Humidity,Sea Level PressureIn,VisibilityMPH,Wind Direction,Wind SpeedMPH,Gust SpeedMPH,PrecipitationIn,Events,Conditions,WindDirDegrees,DateUTC
12:16 AM,14.0,10.4,86,29.91,10.0,NW,9.2,-,N/A,,Clear,320,2012-12-10 06:16:00
12:36 AM,14.0,10.4,86,29.92,10.0,NW,9.2,17.3,N/A,,Scattered Clouds,310,2012-12-10 06:36:00
12:55 AM,14.0,10.4,86,29.92,7.0,NW,10.4,-,N/A,Snow,Light Snow,320,2012-12-10 06:55:00
1:16 AM,14.0,10.4,86,29.91,10.0,NNW,8.1,-,N/A,Snow,Light Snow,330,2012-12-10 07:16:00
1:36 AM,14.0,10.4,86,29.91,10.0,NNW,10.4,-,N/A,Snow,Light Snow,340,2012-12-10 07:36:00
1:55 AM,12.2,10.4,92,29.92,10.0,NW,11.5,16.1,N/A,Snow,Light Snow,320,2012-12-10 07:55:00
2:16 AM,12.2,10.4,92,29.92,10.0,NW,9.2,17.3,N/A,Snow,Light Snow,320,2012-12-10 08:16:00
2:55 AM,12.2,8.6,85,29.93,10.0,NNW,10.4,16.1,N/A,Snow,Light Snow,330,2012-12-10 08:55:00
3:16 AM,10.4,6.8,85,29.92,10.0,NNW,8.1,-,N/A,,Overcast,330,2012-12-10 09:16:00
3:35 AM,10.4,6.8,85,29.92,10.0,NNW,6.9,16.1,N/A,Snow,Light Snow,340,2012-12-10 09:35:00
3:56 AM,10.4,6.8,85,29.91,7.0,NNW,9.2,-,N/A,Snow,Light Snow,330,2012-12-10 09:56:00
4:15 AM,10.4,6.8,85,29.91,10.0,NNW,8.1,-,N/A,Snow,Light Snow,330,2012-12-10 10:15:00
4:35 AM,10.4,6.8,85,29.91,10.0,NNW,6.9,-,N/A,Snow,Light Snow,340,2012-12-10 10:35:00
4:55 AM,10.4,6.8,85,29.91,10.0,NNW,4.6,-,N/A,Snow,Light Snow,330,2012-12-10 10:55:00
5:16 AM,10.4,6.8,85,29.91,10.0,NNW,5.8,-,N/A,Snow,Light Snow,330,2012-12-10 11:16:00
5:35 AM,10.4,6.8,85,29.91,10.0,NW,6.9,-,N/A,Snow,Light Snow,320,2012-12-10 11:35:00
5:55 AM,10.4,6.8,85,29.91,7.0,NNW,6.9,-,N/A,Snow,Light Snow,330,2012-12-10 11:55:00
6:16 AM,10.4,6.8,85,29.91,3.0,NW,6.9,-,N/A,Snow,Light Snow,310,2012-12-10 12:16:00
6:35 AM,10.4,6.8,85,29.91,3.0,NW,6.9,-,N/A,Snow,Light Snow,320,2012-12-10 12:35:00
6:56 AM,10.4,6.8,85,29.91,3.0,WNW,5.8,-,N/A,Snow,Light Snow,300,2012-12-10 12:56:00
7:15 AM,8.6,6.8,92,29.92,2.0,WNW,6.9,-,N/A,Snow,Light Snow,300,2012-12-10 13:15:00
7:36 AM,8.6,6.8,92,29.91,4.0,WNW,3.5,-,N/A,Snow,Light Snow,300,2012-12-10 13:36:00
7:56 AM,8.6,6.8,92,29.90,2.0,NW,3.5,-,N/A,Snow,Light Snow,310,2012-12-10 13:56:00
8:15 AM,8.6,6.8,92,29.90,3.0,WNW,5.8,-,N/A,Snow,Light Snow,300,2012-12-10 14:15:00
8:36 AM,8.6,5.0,85,29.91,4.0,WNW,6.9,-,N/A,Snow,Light Snow,300,2012-12-10 14:36:00
8:56 AM,8.6,3.2,79,29.92,4.0,WNW,8.1,-,N/A,Snow,Light Snow,290,2012-12-10 14:56:00
9:15 AM,6.8,3.2,85,29.92,10.0,WNW,5.8,-,N/A,Snow,Light Snow,300,2012-12-10 15:15:00
9:36 AM,6.8,3.2,85,29.92,10.0,WNW,5.8,-,N/A,Snow,Light Snow,290,2012-12-10 15:36:00
9:55 AM,6.8,3.2,85,29.92,10.0,NW,5.8,-,N/A,,Scattered Clouds,310,2012-12-10 15:55:00
10:15 AM,6.8,3.2,85,29.92,10.0,NW,4.6,-,N/A,,Scattered Clouds,310,2012-12-10 16:15:00
10:36 AM,6.8,1.4,79,29.92,10.0,NW,5.8,-,N/A,,Clear,320,2012-12-10 16:36:00
10:55 AM,6.8,3.2,85,29.92,10.0,WNW,4.6,-,N/A,,Clear,300,2012-12-10 16:55:00
11:15 AM,8.6,3.2,79,29.91,10.0,Calm,Calm,-,N/A,,Clear,0,2012-12-10 17:15:00
11:36 AM,8.6,3.2,79,29.90,10.0,Calm,Calm,-,N/A,,Clear,0,2012-12-10 17:36:00
11:55 AM,10.4,5.0,79,29.90,10.0,SW,4.6,-,N/A,,Clear,230,2012-12-10 17:55:00
12:16 PM,10.4,5.0,79,29.89,10.0,WSW,4.6,-,N/A,,Clear,250,2012-12-10 18:16:00
12:36 PM,10.4,5.0,79,29.89,10.0,West,3.5,-,N/A,,Clear,280,2012-12-10 18:36:00
12:55 PM,10.4,6.8,85,29.89,10.0,WNW,4.6,-,N/A,,Clear,290,2012-12-10 18:55:00
1:16 PM,10.4,5.0,79,29.88,10.0,West,3.5,-,N/A,,Clear,280,2012-12-10 19:16:00
1:35 PM,10.4,5.0,79,29.87,10.0,West,4.6,-,N/A,,Clear,270,2012-12-10 19:35:00
1:55 PM,10.4,6.8,85,29.87,10.0,West,3.5,-,N/A,,Clear,270,2012-12-10 19:55:00
2:16 PM,10.4,6.8,85,29.87,10.0,West,3.5,-,N/A,,Clear,270,2012-12-10 20:16:00
2:35 PM,10.4,6.8,85,29.86,10.0,Calm,Calm,-,N/A,,Clear,0,2012-12-10 20:35:00
2:55 PM,10.4,6.8,85,29.85,10.0,Calm,Calm,-,N/A,,Clear,0,2012-12-10 20:55:00
3:16 PM,10.4,6.8,85,29.86,10.0,West,3.5,-,N/A,,Clear,260,2012-12-10 21:16:00
3:35 PM,10.4,6.8,85,29.85,10.0,Calm,Calm,-,N/A,,Clear,0,2012-12-10 21:35:00
3:56 PM,10.4,5.0,79,29.86,10.0,SSW,3.5,-,N/A,,Clear,210,2012-12-10 21:56:00
4:15 PM,10.4,5.0,79,29.86,10.0,Calm,Calm,-,N/A,,Clear,0,2012-12-10 22:15:00
4:35 PM,8.6,5.0,85,29.87,10.0,Calm,Calm,-,N/A,,Clear,0,2012-12-10 22:35:00
4:56 PM,8.6,3.2,79,29.86,10.0,Calm,Calm,-,N/A,,Clear,0,2012-12-10 22:56:00
5:16 PM,5.0,1.4,85,29.86,10.0,Calm,Calm,-,N/A,,Clear,0,2012-12-10 23:16:00
5:35 PM,3.2,1.4,92,29.86,10.0,Calm,Calm,-,N/A,,Clear,0,2012-12-10 23:35:00
5:55 PM,3.2,1.4,92,29.87,10.0,Calm,Calm,-,N/A,,Clear,0,2012-12-10 23:55:00
6:16 PM,1.4,-2.2,85,29.87,10.0,Calm,Calm,-,N/A,,Clear,0,2012-12-11 00:16:00
6:35 PM,1.4,-0.4,92,29.87,10.0,Calm,Calm,-,N/A,,Clear,0,2012-12-11 00:35:00
6:56 PM,1.4,-2.2,85,29.86,10.0,Calm,Calm,-,N/A,,Clear,0,2012-12-11 00:56:00
7:15 PM,1.4,-0.4,92,29.86,10.0,Calm,Calm,-,N/A,,Clear,0,2012-12-11 01:15:00
7:36 PM,1.4,-2.2,85,29.86,10.0,Calm,Calm,-,N/A,Snow,Light Snow,0,2012-12-11 01:36:00
7:55 PM,3.2,-0.4,85,29.85,10.0,SSE,3.5,-,N/A,,Clear,150,2012-12-11 01:55:00
8:16 PM,1.4,-0.4,92,29.85,10.0,Calm,Calm,-,N/A,,Clear,0,2012-12-11 02:16:00
8:35 PM,3.2,1.4,92,29.85,10.0,SSE,3.5,-,N/A,,Clear,160,2012-12-11 02:35:00
8:56 PM,3.2,-0.4,85,29.84,10.0,Calm,Calm,-,N/A,,Clear,0,2012-12-11 02:56:00
9:15 PM,3.2,-0.4,85,29.84,10.0,SSE,3.5,-,N/A,,Clear,150,2012-12-11 03:15:00
9:35 PM,1.4,-0.4,92,29.84,10.0,Calm,Calm,-,N/A,,Clear,0,2012-12-11 03:35:00
9:56 PM,1.4,-0.4,92,29.84,10.0,Calm,Calm,-,N/A,,Clear,0,2012-12-11 03:56:00
10:16 PM,1.4,-0.4,92,29.84,10.0,South,4.6,-,N/A,Snow,Light Snow,170,2012-12-11 04:16:00
10:36 PM,1.4,-0.4,92,29.82,10.0,SSE,4.6,-,N/A,Snow,Light Snow,150,2012-12-11 04:36:00
10:56 PM,1.4,-0.4,92,29.83,10.0,South,3.5,-,N/A,,Clear,180,2012-12-11 04:56:00
11:15 PM,1.4,-0.4,92,29.82,10.0,South,3.5,-,N/A,Snow,Light Snow,170,2012-12-11 05:15:00
11:36 PM,1.4,-0.4,92,29.82,10.0,Calm,Calm,-,N/A,,Scattered Clouds,0,2012-12-11 05:36:00
11:56 PM,1.4,-0.4,92,29.81,10.0,Calm,Calm,-,N/A,,Scattered Clouds,0,2012-12-11 05:56:00